Nearby METAR Reports

 

PAEN - Kenai, Alaska, USA
Distance from station: ESE 2mi, 4km
Updated: Mon, 20-May-2024 1:53am AKDT
Clear
Clear
 Wind from S
Wind: S 9 mph, 15 km/h
Temperature: 41°F, 5°C
Wind Chill: 35°F, 2°C
Dew Point: 36°F, 2°C
Humidity: 81%
Barometer: 29.98 inHg, 1015.2 hPa
Clouds: Clear
Visibility: 10 miles, 16 km
2024/05/20 09:53 PAEN 200953Z AUTO 17008KT 10SM CLR 05/02 A2998 RMK AO2 SLP155 T00500017 TSNO
PASX - Soldotna, Alaska, USA
Distance from station: SE 12mi, 19km
Updated: Mon, 20-May-2024 1:56am AKDT

 Wind from SSW
Wind: SSW 9 mph, 15 km/h
Temperature: 43°F, 6°C
Wind Chill: 38°F, 3°C
Dew Point: 37°F, 3°C
Humidity: 81%
Barometer: 30.00 inHg, 1015.9 hPa
Visibility: 10 miles, 16 km
2024/05/20 09:56 PASX 200956Z AUTO 20008KT 10SM 06/03 A3000 RMK AO2 SLP167 T00610028
 
PANC - Anchorage Intl, Alaska, USA
Distance from station: NE 59mi, 96km
Updated: Mon, 20-May-2024 1:53am AKDT
Mostly cloudy
Mostly cloudy
 Wind from S
Wind: S 12 mph, 19 km/h, Gust: 23 mph, 37 km/h
Temperature: 46°F, 8°C
Wind Chill: 40°F, 4°C
Dew Point: 36°F, 2°C
Humidity: 66%
Barometer: 29.96 inHg, 1014.6 hPa
Clouds: Mostly cloudy
Visibility: 10 miles, 16 km
Cloud details: Partly cloudy 7000 ft
Mostly cloudy 15000 ft
2024/05/20 09:53 PANC 200953Z 19010G20KT 170V260 10SM SCT070 BKN150 08/02 A2996 RMK AO2 SLP146 T00830017 $
PALH - Anchorage/Lake H, Alaska, USA
Distance from station: NE 61mi, 99km
Updated: Mon, 20-May-2024 1:53am AKDT
Mostly cloudy
Mostly cloudy
 Wind from S
Wind: S 8 mph, 13 km/h
Temperature: 46°F, 8°C
Wind Chill: 42°F, 6°C
Dew Point: 34°F, 1°C
Humidity: 62%
Barometer: 29.97 inHg, 1014.9 hPa
Clouds: Mostly cloudy
Visibility: 10 miles, 16 km
Cloud details: Mostly cloudy 7000 ft
2024/05/20 09:53 PALH 200953Z AUTO 19007KT 10SM BKN070 08/01 A2997 RMK AO2 SLP150 T00780011 TSNO
 
PAHO - Homer, Alaska, USA
Distance from station: S 66mi, 106km
Updated: Mon, 20-May-2024 1:53am AKDT
Clear
Clear
 Wind from ENE
Wind: ENE 3 mph, 6 km/h
Temperature: 37°F, 3°C
Dew Point: 34°F, 1°C
Humidity: 87%
Barometer: 30.02 inHg, 1016.6 hPa
Clouds: Clear
Visibility: 10 miles, 16 km
2024/05/20 09:53 PAHO 200953Z AUTO 07003KT 10SM CLR 03/01 A3002 RMK AO2 SLP166 T00330011 TSNO $
PAMR - Anchorage/Merril, Alaska, USA
Distance from station: NE 66mi, 106km
Updated: Mon, 20-May-2024 1:53am AKDT
Mostly cloudy
Mostly cloudy
 Wind from S
Wind: S 10 mph, 17 km/h, Gust: 18 mph, 30 km/h
Temperature: 46°F, 8°C
Wind Chill: 41°F, 5°C
Dew Point: 30°F, -1°C
Humidity: 53%
Barometer: 29.96 inHg, 1014.6 hPa
Clouds: Mostly cloudy
Visibility: 10 miles, 16 km
Cloud details: Mostly cloudy 7000 ft
2024/05/20 09:53 PAMR 200953Z 18009G16KT 10SM BKN070 08/M01 A2996 RMK AO2 SLP148 T00831006
 
PAED - Elmendorf Afb, Alaska, USA
Distance from station: NE 69mi, 110km
Updated: Mon, 20-May-2024 1:55am AKDT
Mostly cloudy
Mostly cloudy
 Wind from SSW
Wind: SSW 12 mph, 19 km/h
Temperature: 48°F, 9°C
Wind Chill: 43°F, 6°C
Dew Point: 30°F, -1°C
Humidity: 50%
Barometer: 29.95 inHg, 1014.2 hPa
Clouds: Mostly cloudy
Visibility: 10 miles, 16 km
Cloud details: Mostly cloudy 6500 ft
Mostly cloudy 10000 ft
2024/05/20 09:55 PAED 200955Z 20010KT 10SM BKN065 BKN100 09/M01 A2995 RMK AO2A SLP139 T00891007
PAWD - Seward, Alaska, USA
Distance from station: ESE 71mi, 115km
Updated: Mon, 20-May-2024 1:53am AKDT
Clear
Clear
 Wind from N
Wind: N 6 mph, 9 km/h
Temperature: 34°F, 1°C
Wind Chill: 29°F, -2°C
Dew Point: 28°F, -2°C
Humidity: 81%
Barometer: 30.01 inHg, 1016.3 hPa
Clouds: Clear
Visibility: 10 miles, 16 km
2024/05/20 09:53 PAWD 200953Z AUTO 36005KT 10SM CLR 01/M02 A3001 RMK AO2 SLP162 T00111017 TSNO
 
PASC - Deadhorse, Alaska, USA
Distance from station: ENE 670mi, 1078km
Updated: Mon, 20-May-2024 1:53am AKDT
Mist, Overcast
Mist, Overcast
 Wind from E
Wind: E 12 mph, 19 km/h
Temperature: 28°F, -2°C
Wind Chill: 18°F, -8°C
Dew Point: 25°F, -4°C
Humidity: 86%
Barometer: 30.01 inHg, 1016.3 hPa
Summary: Mist
Clouds: Overcast
Visibility: 3 miles, 5 km
Cloud details: Overcast 1800 ft
2024/05/20 09:53 PASC 200953Z 08010KT 3SM BR OVC018 M02/M04 A3001 RMK AO2 SNE14B18E27 SLP165 INTMT SHSN P0000 T10171039
PAAD - Point Thomson, Alaska, USA
Distance from station: ENE 680mi, 1094km
Updated: Mon, 20-May-2024 1:55am AKDT
Light snow, Overcast
Light snow, Overcast
 Wind from E
Wind: E 9 mph, 15 km/h
Temperature: 27°F, -3°C
Wind Chill: 18°F, -8°C
Dew Point: 25°F, -4°C
Humidity: 93%
Barometer: 30.02 inHg, 1016.6 hPa
Summary: Light Snow
Clouds: Overcast
Visibility: 1 1/4 miles, 2 km
Cloud details: Overcast 1200 ft
2024/05/20 09:55 PAAD 200955Z AUTO 09008KT 1 1/4SM -SN OVC012 M03/M04 A3002 RMK AO2 T10271040


Dans Automotive

Lower Peninsula Power Sports

Alaska Weather Net